Sariyer, Turkey
Current Conditions -  °F | °C
As of 4:20 AM on Wednesday 26 Nov 2014 (Local Time) from LTBA Reporting Station
Rain Showers Rain Showers  
Wind Chill: 37°   Ceiling: 3500
Heat Index: 45°   Visibility: 4mi
Dew Point: 39°   Wind: 16mph
Humidity: 81%   Direction: 350°N
Pressure: 30.15"   Gusts: NA
Location:  41.17°N, 29.05°E
Report Text: LTBA 260120Z 35014KT 7000 -SHRA FEW018 BKN035 07/04 Q1021 NOSIG
Loading
Personal Weather Stations






























Interactive Weather Map New forecast layout! Learn more

10-Day Weather Forecast

Advertisements
Track Severe Weather on mobile